createdAt,value
2022-10-26T00:01:04.030Z,17.38
2022-10-26T00:03:30.933Z,16.82
2022-10-26T00:06:08.694Z,14.30
2022-10-26T00:08:35.798Z,16.93
2022-10-26T00:11:03.432Z,18.07
2022-10-26T00:13:30.230Z,16.84
2022-10-26T00:15:58.167Z,15.94
2022-10-26T00:18:24.994Z,17.12
2022-10-26T00:20:51.782Z,17.51
2022-10-26T00:23:18.482Z,18.49
2022-10-26T00:25:45.283Z,17.06
2022-10-26T00:28:13.188Z,18.39
2022-10-26T00:30:40.237Z,18.56
2022-10-26T00:33:06.925Z,16.99
2022-10-26T00:35:45.680Z,16.59
2022-10-26T00:38:14.681Z,16.10
2022-10-26T00:40:41.357Z,17.35
2022-10-26T00:43:20.339Z,16.30
2022-10-26T00:45:49.258Z,17.34
2022-10-26T00:48:28.406Z,15.05
2022-10-26T00:50:59.838Z,13.57
2022-10-26T00:53:28.344Z,18.03
2022-10-26T00:55:55.839Z,17.07
2022-10-26T00:58:23.430Z,14.79
2022-10-26T01:00:50.971Z,15.29
2022-10-26T01:03:18.950Z,14.18
2022-10-26T01:05:47.748Z,16.31
2022-10-26T01:08:17.164Z,13.35
2022-10-26T01:10:45.484Z,16.27
2022-10-26T01:13:14.649Z,18.85
2022-10-26T01:15:50.396Z,18.79
2022-10-26T01:18:25.659Z,16.96
2022-10-26T01:21:03.456Z,17.90
2022-10-26T01:23:36.154Z,17.42
2022-10-26T01:26:56.813Z,18.79
2022-10-26T01:29:41.181Z,19.79
2022-10-26T01:32:19.385Z,17.74
2022-10-26T01:35:06.504Z,17.85
2022-10-26T01:37:45.496Z,18.85
2022-10-26T01:40:21.440Z,16.70
2022-10-26T01:42:53.391Z,17.51
2022-10-26T01:45:20.646Z,16.83
2022-10-26T01:47:48.661Z,16.06
2022-10-26T01:50:16.986Z,15.19
2022-10-26T01:52:45.182Z,14.88
2022-10-26T01:55:36.759Z,16.04
2022-10-26T01:58:23.770Z,16.78
2022-10-26T02:01:37.436Z,15.05
2022-10-26T02:04:34.739Z,17.07
2022-10-26T02:07:04.493Z,17.18
2022-10-26T02:10:13.242Z,15.62
2022-10-26T02:13:10.661Z,17.06
2022-10-26T02:15:58.147Z,16.46
2022-10-26T02:18:34.607Z,18.04
2022-10-26T02:21:07.846Z,17.84
2022-10-26T02:23:39.009Z,16.53
2022-10-26T02:26:09.518Z,16.47
2022-10-26T02:28:45.598Z,18.50
2022-10-26T02:31:15.295Z,15.52
2022-10-26T02:36:27.682Z,17.14
2022-10-26T02:38:57.317Z,17.09
2022-10-26T02:41:27.512Z,16.33
2022-10-26T02:44:04.554Z,15.52
2022-10-26T02:46:31.646Z,17.88
2022-10-26T02:48:59.450Z,15.42
2022-10-26T02:51:32.009Z,17.37
2022-10-26T02:54:20.421Z,15.75
2022-10-26T02:56:47.066Z,14.39
2022-10-26T02:59:17.094Z,13.49
2022-10-26T03:01:45.747Z,16.88
2022-10-26T03:04:12.485Z,16.77
2022-10-26T03:06:39.250Z,15.45
2022-10-26T03:09:05.974Z,16.54
2022-10-26T03:11:32.638Z,15.96
2022-10-26T03:14:00.627Z,14.96
2022-10-26T03:16:27.732Z,16.81
2022-10-26T03:18:54.449Z,14.83
2022-10-26T03:21:21.171Z,14.46
2022-10-26T03:23:48.076Z,15.95
2022-10-26T03:26:15.964Z,17.58
2022-10-26T03:28:42.694Z,16.87
2022-10-26T03:31:09.461Z,17.36
2022-10-26T03:33:39.114Z,16.25
2022-10-26T03:36:06.386Z,15.90
2022-10-26T03:38:33.140Z,16.89
2022-10-26T03:41:01.106Z,16.82
2022-10-26T03:43:27.801Z,17.38
2022-10-26T03:45:54.477Z,16.98
2022-10-26T03:48:21.198Z,17.42
2022-10-26T03:50:47.899Z,17.25
2022-10-26T03:53:15.117Z,16.73
2022-10-26T03:55:45.166Z,17.38
2022-10-26T03:58:11.937Z,18.46
2022-10-26T04:00:38.706Z,17.82
2022-10-26T04:03:05.433Z,19.17
2022-10-26T04:05:32.716Z,19.15
2022-10-26T04:08:04.877Z,18.85
2022-10-26T04:10:32.388Z,16.50
2022-10-26T04:13:00.436Z,18.04
2022-10-26T04:15:28.122Z,19.24
2022-10-26T04:18:00.292Z,18.09
2022-10-26T04:20:29.019Z,17.32
2022-10-26T04:23:03.242Z,16.92
2022-10-26T04:25:33.083Z,17.83
2022-10-26T04:28:02.566Z,18.93
2022-10-26T04:30:29.740Z,17.74
2022-10-26T04:32:57.024Z,16.74
2022-10-26T04:35:24.014Z,18.44
2022-10-26T04:37:50.726Z,18.41
2022-10-26T04:40:18.281Z,17.65
2022-10-26T04:42:47.767Z,19.45
2022-10-26T04:45:16.975Z,17.82
2022-10-26T04:47:44.082Z,18.94
2022-10-26T04:50:12.249Z,18.95
2022-10-26T04:52:39.622Z,19.12
2022-10-26T04:55:07.649Z,19.16
2022-10-26T04:57:35.385Z,19.74
2022-10-26T05:00:04.028Z,19.83
2022-10-26T05:02:31.889Z,19.18
2022-10-26T05:04:58.874Z,19.65
2022-10-26T05:07:25.838Z,17.53
2022-10-26T05:09:52.614Z,19.74
2022-10-26T05:12:19.486Z,18.33
2022-10-26T05:14:47.249Z,18.98
2022-10-26T05:17:13.954Z,14.96
2022-10-26T05:19:40.942Z,16.57
2022-10-26T05:22:07.950Z,17.62
2022-10-26T05:24:34.821Z,17.84
2022-10-26T05:27:02.371Z,18.52
2022-10-26T05:29:29.028Z,17.77
2022-10-26T05:31:56.035Z,17.86
2022-10-26T05:34:22.755Z,15.17
2022-10-26T05:36:49.422Z,18.31
2022-10-26T05:39:17.118Z,17.82
2022-10-26T05:41:43.874Z,15.89
2022-10-26T05:44:10.818Z,19.32
2022-10-26T05:46:37.611Z,17.74
2022-10-26T05:49:04.350Z,18.40
2022-10-26T05:51:34.498Z,17.31
2022-10-26T05:54:01.787Z,17.03
2022-10-26T05:56:39.882Z,15.78
2022-10-26T05:59:17.777Z,17.08
2022-10-26T06:02:09.528Z,14.20
2022-10-26T06:04:48.035Z,17.80
2022-10-26T06:07:22.056Z,18.38
2022-10-26T06:09:49.293Z,18.80
2022-10-26T06:12:19.638Z,19.03
2022-10-26T06:14:48.062Z,17.97
2022-10-26T06:17:33.153Z,16.73
2022-10-26T06:20:06.321Z,18.03
2022-10-26T06:22:59.465Z,16.27
2022-10-26T06:25:29.347Z,16.98
2022-10-26T06:28:14.064Z,16.92
2022-10-26T06:30:41.718Z,16.96
2022-10-26T06:33:24.892Z,17.25
2022-10-26T06:36:18.451Z,17.44
2022-10-26T06:38:46.723Z,19.20
2022-10-26T06:41:19.319Z,19.88
2022-10-26T06:43:46.860Z,18.59
2022-10-26T06:46:24.289Z,19.26
2022-10-26T06:49:02.951Z,19.23
2022-10-26T06:51:33.277Z,18.12
2022-10-26T06:54:11.320Z,18.65
2022-10-26T06:56:38.358Z,17.06
2022-10-26T06:59:14.022Z,18.48
2022-10-26T07:01:40.736Z,18.13
2022-10-26T07:04:07.514Z,17.30
2022-10-26T07:06:36.826Z,18.78
2022-10-26T07:09:05.931Z,20.97
2022-10-26T07:11:33.370Z,21.29
2022-10-26T07:14:00.374Z,18.94
2022-10-26T07:16:28.001Z,18.57
2022-10-26T07:18:54.754Z,18.43
2022-10-26T07:21:21.482Z,18.90
2022-10-26T07:23:48.586Z,20.76
2022-10-26T07:26:15.464Z,20.41
2022-10-26T07:28:42.213Z,19.96
2022-10-26T07:31:08.949Z,21.63
2022-10-26T07:33:38.069Z,17.24
2022-10-26T07:36:10.923Z,19.68
2022-10-26T07:38:38.885Z,20.68
2022-10-26T07:41:06.414Z,21.74
2022-10-26T07:43:33.815Z,21.62
2022-10-26T07:46:00.702Z,20.16
2022-10-26T07:48:27.904Z,19.86
2022-10-26T07:50:54.676Z,21.95
2022-10-26T07:53:26.748Z,19.16
2022-10-26T07:55:56.280Z,19.57
2022-10-26T07:58:25.967Z,17.73
2022-10-26T08:00:54.021Z,20.27
2022-10-26T08:03:21.659Z,21.10
2022-10-26T08:05:51.419Z,19.77
2022-10-26T08:08:19.043Z,19.79
2022-10-26T08:10:47.774Z,21.77
2022-10-26T08:13:15.303Z,22.20
2022-10-26T08:15:42.191Z,20.18
2022-10-26T08:18:08.932Z,20.78
2022-10-26T08:20:35.707Z,20.45
2022-10-26T08:23:06.180Z,19.79
2022-10-26T08:25:34.562Z,19.31
2022-10-26T08:28:03.832Z,20.76
2022-10-26T08:33:04.279Z,20.44
2022-10-26T08:35:32.886Z,20.16
2022-10-26T08:37:59.884Z,21.35
2022-10-26T08:40:32.854Z,21.89
2022-10-26T08:43:32.849Z,21.17
2022-10-26T08:46:09.470Z,20.52
2022-10-26T08:48:40.576Z,21.48
2022-10-26T08:51:14.616Z,20.87
2022-10-26T08:53:52.747Z,22.77
2022-10-26T08:56:25.618Z,22.71
2022-10-26T08:59:07.930Z,22.30
2022-10-26T09:01:34.738Z,22.19
2022-10-26T09:04:04.428Z,22.02
2022-10-26T09:06:58.006Z,22.86
2022-10-26T09:09:42.763Z,23.24
2022-10-26T09:12:33.265Z,23.02
2022-10-26T09:15:15.011Z,23.90
2022-10-26T09:18:20.546Z,23.16
2022-10-26T09:20:49.866Z,24.85
2022-10-26T09:23:22.389Z,23.31
2022-10-26T09:25:58.471Z,26.01
2022-10-26T09:28:28.547Z,22.61
2022-10-26T09:30:59.091Z,25.23
2022-10-26T09:33:26.753Z,24.62
2022-10-26T09:36:04.477Z,25.28
2022-10-26T09:38:40.114Z,25.64
2022-10-26T09:41:18.665Z,26.35
2022-10-26T09:43:58.224Z,25.96
2022-10-26T09:46:31.410Z,26.13
2022-10-26T09:51:38.258Z,25.62
2022-10-26T09:54:15.275Z,25.34
2022-10-26T09:56:45.349Z,25.03
2022-10-26T09:59:13.264Z,25.99
2022-10-26T10:01:42.337Z,25.20
2022-10-26T10:04:21.269Z,26.43
2022-10-26T10:06:52.979Z,27.24
2022-10-26T10:09:22.723Z,27.59
2022-10-26T10:12:01.175Z,25.21
2022-10-26T10:14:59.115Z,27.91
2022-10-26T10:17:26.618Z,26.23
2022-10-26T10:19:53.574Z,22.52
2022-10-26T10:22:25.206Z,23.24
2022-10-26T10:25:04.022Z,25.66
2022-10-26T10:27:31.146Z,26.62
2022-10-26T10:30:13.640Z,27.67
2022-10-26T10:32:41.450Z,26.02
2022-10-26T10:35:24.301Z,24.57
2022-10-26T10:37:52.287Z,24.78
2022-10-26T10:40:25.391Z,22.86
2022-10-26T10:42:55.460Z,22.59
2022-10-26T10:45:25.362Z,23.47
2022-10-26T10:48:20.691Z,22.93
2022-10-26T10:51:04.302Z,26.25
2022-10-26T10:53:46.549Z,25.37
2022-10-26T10:56:42.450Z,22.90
2022-10-26T10:59:35.354Z,24.00
2022-10-26T11:02:35.370Z,24.39
2022-10-26T11:05:05.563Z,24.10
2022-10-26T11:07:44.948Z,23.00
2022-10-26T11:10:16.203Z,26.44
2022-10-26T11:12:57.435Z,24.94
2022-10-26T11:15:27.890Z,25.07
2022-10-26T11:18:11.085Z,23.18
2022-10-26T11:20:42.382Z,23.41
2022-10-26T11:23:23.926Z,21.85
2022-10-26T11:26:00.789Z,25.03
2022-10-26T11:28:45.912Z,23.27
2022-10-26T11:31:21.453Z,23.49
2022-10-26T11:34:12.461Z,25.43
2022-10-26T11:36:42.076Z,25.35
2022-10-26T11:39:23.597Z,26.15
2022-10-26T11:42:17.371Z,26.05
2022-10-26T11:45:21.846Z,25.75
2022-10-26T11:47:54.995Z,23.96
2022-10-26T11:50:32.841Z,24.18
2022-10-26T11:53:16.290Z,25.05
2022-10-26T11:55:53.377Z,26.48
2022-10-26T11:58:24.481Z,26.47
2022-10-26T12:01:00.287Z,25.16
2022-10-26T12:03:37.470Z,25.16
2022-10-26T12:06:04.966Z,26.53
2022-10-26T12:08:38.658Z,27.79
2022-10-26T12:11:30.334Z,23.25
2022-10-26T12:14:26.451Z,26.83
2022-10-26T12:17:21.119Z,27.40
2022-10-26T12:20:39.141Z,27.28
2022-10-26T12:23:11.207Z,24.63
2022-10-26T12:25:40.570Z,24.37
2022-10-26T12:28:36.309Z,23.83
2022-10-26T12:31:36.918Z,27.06
2022-10-26T12:34:22.720Z,25.60
2022-10-26T12:36:55.194Z,23.99
2022-10-26T12:39:30.965Z,25.68
2022-10-26T12:42:06.566Z,26.47
2022-10-26T12:44:48.940Z,26.43
2022-10-26T12:47:28.090Z,22.43
2022-10-26T12:50:07.462Z,25.32
2022-10-26T12:52:50.716Z,26.25
2022-10-26T12:55:26.497Z,26.17
2022-10-26T12:58:29.687Z,26.07
2022-10-26T13:00:59.178Z,23.88
2022-10-26T13:03:39.983Z,24.07
2022-10-26T13:06:28.565Z,25.00
2022-10-26T13:08:59.500Z,25.23
2022-10-26T13:11:38.362Z,25.45
2022-10-26T13:14:09.028Z,27.33
2022-10-26T13:16:36.773Z,25.85
2022-10-26T13:19:03.563Z,25.33
2022-10-26T13:21:30.349Z,25.33
2022-10-26T13:24:05.740Z,25.92
2022-10-26T13:26:52.977Z,25.55
2022-10-26T13:29:20.592Z,26.20
2022-10-26T13:31:47.283Z,26.93
2022-10-26T13:34:18.662Z,26.95
2022-10-26T13:37:14.211Z,27.19
2022-10-26T13:39:44.108Z,26.48
2022-10-26T13:42:20.859Z,25.28
2022-10-26T13:44:57.636Z,25.42
2022-10-26T13:47:30.059Z,25.16
2022-10-26T13:50:04.504Z,26.13
2022-10-26T13:52:42.802Z,25.96
2022-10-26T13:55:25.510Z,25.66
2022-10-26T13:58:11.065Z,25.20
2022-10-26T14:00:38.262Z,26.07
2022-10-26T14:03:18.798Z,26.38
2022-10-26T14:05:49.127Z,25.91
2022-10-26T14:08:18.576Z,26.66
2022-10-26T14:10:57.357Z,27.02
2022-10-26T14:13:26.590Z,27.59
2022-10-26T14:15:55.590Z,27.18
2022-10-26T14:18:27.681Z,27.57
2022-10-26T14:20:57.577Z,27.50
2022-10-26T14:23:28.470Z,26.44
2022-10-26T14:25:59.072Z,24.47
2022-10-26T14:28:30.897Z,24.00
2022-10-26T14:31:22.554Z,27.57
2022-10-26T14:33:49.646Z,27.92
2022-10-26T14:36:19.942Z,27.53
2022-10-26T14:38:51.102Z,26.63
2022-10-26T14:41:18.698Z,27.87
2022-10-26T14:43:46.387Z,27.24
2022-10-26T14:46:16.646Z,27.06
2022-10-26T14:48:58.828Z,27.44
2022-10-26T14:51:28.070Z,27.30
2022-10-26T14:53:58.306Z,26.38
2022-10-26T14:56:37.783Z,25.87
2022-10-26T14:59:22.790Z,27.60
2022-10-26T15:01:56.344Z,27.44
2022-10-26T15:04:37.687Z,25.33
2022-10-26T15:07:13.450Z,25.50
2022-10-26T15:09:44.569Z,26.57
2022-10-26T15:12:34.051Z,26.17
2022-10-26T15:15:10.231Z,25.93
2022-10-26T15:17:41.332Z,24.57
2022-10-26T15:20:16.415Z,26.20
2022-10-26T15:22:49.598Z,26.20
2022-10-26T15:25:23.309Z,26.01
2022-10-26T15:27:52.235Z,26.33
2022-10-26T15:30:28.024Z,26.51
2022-10-26T15:32:55.840Z,26.40
2022-10-26T15:35:27.520Z,25.66
2022-10-26T15:37:56.207Z,26.52
2022-10-26T15:42:59.982Z,26.73
2022-10-26T15:45:30.290Z,26.84
2022-10-26T15:47:59.220Z,26.23
2022-10-26T15:50:28.596Z,26.31
2022-10-26T15:53:01.063Z,26.58
2022-10-26T15:55:31.644Z,26.52
2022-10-26T15:57:58.425Z,26.95
2022-10-26T16:00:25.111Z,25.33
2022-10-26T16:02:52.294Z,25.55
2022-10-26T16:05:19.446Z,26.00
2022-10-26T16:07:48.546Z,24.89
2022-10-26T16:10:23.470Z,25.47
2022-10-26T16:12:51.239Z,24.18
2022-10-26T16:15:27.447Z,24.40
2022-10-26T16:17:54.556Z,25.10
2022-10-26T16:20:24.758Z,25.47
2022-10-26T16:22:53.746Z,25.89
2022-10-26T16:25:23.684Z,24.58
2022-10-26T16:27:50.822Z,24.19
2022-10-26T16:30:18.988Z,25.02
2022-10-26T16:32:46.256Z,24.27
2022-10-26T16:35:13.318Z,24.86
2022-10-26T16:37:40.293Z,24.60
2022-10-26T16:40:09.753Z,24.99
2022-10-26T16:42:37.406Z,25.61
2022-10-26T16:45:04.799Z,25.42
2022-10-26T16:47:35.657Z,25.11
2022-10-26T16:50:04.335Z,24.90
2022-10-26T16:52:34.010Z,24.57
2022-10-26T16:55:01.083Z,24.25
2022-10-26T16:57:27.895Z,25.25
2022-10-26T16:59:54.588Z,25.26
2022-10-26T17:02:21.570Z,25.65
2022-10-26T17:04:49.292Z,24.18
2022-10-26T17:07:16.261Z,24.51
2022-10-26T17:09:43.201Z,24.33
2022-10-26T17:12:11.189Z,24.58
2022-10-26T17:14:39.062Z,24.79
2022-10-26T17:17:06.042Z,24.25
2022-10-26T17:19:32.770Z,24.88
2022-10-26T17:21:59.646Z,24.39
2022-10-26T17:24:27.084Z,25.71
2022-10-26T17:26:54.254Z,25.11
2022-10-26T17:29:21.501Z,24.90
2022-10-26T17:31:48.255Z,24.54
2022-10-26T17:34:15.006Z,24.30
2022-10-26T17:36:41.703Z,23.52
2022-10-26T17:39:09.458Z,23.40
2022-10-26T17:41:36.433Z,24.00
2022-10-26T17:44:03.190Z,23.34
2022-10-26T17:46:30.003Z,23.98
2022-10-26T17:49:01.572Z,22.23
2022-10-26T17:51:30.049Z,24.37
2022-10-26T17:53:59.128Z,23.54
2022-10-26T17:56:31.402Z,24.03
2022-10-26T17:59:00.658Z,23.74
2022-10-26T18:01:28.726Z,24.06
2022-10-26T18:03:55.956Z,23.46
2022-10-26T18:06:24.696Z,23.05
2022-10-26T18:08:51.745Z,21.74
2022-10-26T18:11:27.146Z,22.81
2022-10-26T18:13:57.103Z,22.20
2022-10-26T18:16:26.723Z,21.83
2022-10-26T18:19:00.656Z,22.67
2022-10-26T18:21:29.174Z,22.68
2022-10-26T18:23:56.407Z,22.55
2022-10-26T18:26:28.544Z,22.04
2022-10-26T18:29:00.137Z,22.83
2022-10-26T18:31:28.592Z,22.62
2022-10-26T18:34:00.307Z,22.11
2022-10-26T18:36:28.102Z,22.04
2022-10-26T18:38:55.922Z,21.40
2022-10-26T18:41:24.845Z,19.50
2022-10-26T18:43:55.055Z,21.04
2022-10-26T18:46:25.129Z,22.64
2022-10-26T18:48:53.541Z,23.00
2022-10-26T18:51:23.283Z,21.47
2022-10-26T18:53:50.237Z,22.23
2022-10-26T18:56:21.943Z,21.39
2022-10-26T18:58:50.829Z,21.60
2022-10-26T19:01:19.007Z,21.14
2022-10-26T19:03:46.157Z,18.86
2022-10-26T19:06:21.959Z,20.38
2022-10-26T19:08:48.804Z,21.18
2022-10-26T19:11:17.889Z,18.75
2022-10-26T19:13:45.139Z,19.44
2022-10-26T19:16:17.169Z,20.61
2022-10-26T19:18:48.988Z,20.85
2022-10-26T19:21:20.949Z,21.74
2022-10-26T19:23:50.164Z,19.82
2022-10-26T19:26:22.377Z,21.57
2022-10-26T19:28:57.972Z,21.14
2022-10-26T19:31:27.355Z,21.44
2022-10-26T19:33:58.506Z,18.01
2022-10-26T19:36:27.232Z,20.07
2022-10-26T19:38:55.493Z,20.38
2022-10-26T19:41:24.632Z,19.60
2022-10-26T19:43:51.481Z,21.05
2022-10-26T19:46:21.255Z,20.15
2022-10-26T19:48:54.496Z,20.68
2022-10-26T19:51:25.761Z,19.73
2022-10-26T19:53:52.998Z,19.63
2022-10-26T19:56:20.722Z,18.82
2022-10-26T19:58:48.357Z,20.17
2022-10-26T20:01:15.851Z,19.45
2022-10-26T20:03:43.230Z,20.02
2022-10-26T20:06:12.930Z,18.89
2022-10-26T20:08:41.477Z,20.25
2022-10-26T20:11:13.100Z,20.42
2022-10-26T20:13:44.055Z,20.60
2022-10-26T20:16:12.084Z,20.03
2022-10-26T20:18:44.085Z,20.83
2022-10-26T20:21:15.487Z,19.83
2022-10-26T20:23:42.776Z,19.86
2022-10-26T20:26:12.655Z,18.94
2022-10-26T20:28:45.615Z,16.35
2022-10-26T20:31:13.348Z,19.20
2022-10-26T20:33:40.745Z,18.63
2022-10-26T20:36:08.050Z,20.38
2022-10-26T20:38:35.172Z,18.82
2022-10-26T20:41:06.092Z,18.91
2022-10-26T20:43:39.912Z,17.87
2022-10-26T20:46:22.626Z,18.73
2022-10-26T20:48:50.377Z,18.11
2022-10-26T20:51:26.552Z,17.84
2022-10-26T20:54:05.587Z,18.20
2022-10-26T20:56:34.494Z,16.82
2022-10-26T20:59:03.914Z,18.39
2022-10-26T21:01:38.255Z,18.22
2022-10-26T21:04:05.090Z,18.12
2022-10-26T21:06:40.452Z,17.34
2022-10-26T21:09:08.625Z,18.20
2022-10-26T21:11:36.707Z,17.94
2022-10-26T21:14:05.164Z,18.07
2022-10-26T21:16:31.927Z,17.66
2022-10-26T21:19:00.289Z,18.81
2022-10-26T21:21:27.103Z,18.72
2022-10-26T21:23:53.809Z,17.26
2022-10-26T21:26:20.518Z,17.65
2022-10-26T21:28:47.258Z,17.27
2022-10-26T21:31:17.674Z,18.06
2022-10-26T21:33:46.110Z,17.66
2022-10-26T21:36:13.984Z,17.25
2022-10-26T21:38:43.654Z,17.06
2022-10-26T21:41:11.739Z,17.95
2022-10-26T21:43:40.534Z,18.04
2022-10-26T21:46:08.264Z,18.77
2022-10-26T21:48:35.659Z,18.47
2022-10-26T21:51:06.669Z,18.80
2022-10-26T21:53:33.650Z,20.09
2022-10-26T21:56:04.885Z,18.38
2022-10-26T21:58:32.050Z,18.38
2022-10-26T22:01:19.998Z,18.67
2022-10-26T22:03:47.895Z,18.57
2022-10-26T22:08:50.359Z,17.64
2022-10-26T22:11:20.394Z,18.53
2022-10-26T22:13:48.916Z,19.15
2022-10-26T22:16:28.446Z,19.56
2022-10-26T22:18:58.024Z,19.38
2022-10-26T22:21:27.701Z,18.65
2022-10-26T22:23:55.812Z,17.66
2022-10-26T22:26:24.492Z,18.92
2022-10-26T22:28:53.362Z,18.36
2022-10-26T22:31:23.580Z,18.22
2022-10-26T22:34:02.017Z,18.39
2022-10-26T22:36:32.121Z,18.50
2022-10-26T22:38:58.877Z,17.38
2022-10-26T22:41:26.167Z,19.05
2022-10-26T22:43:52.887Z,19.09
2022-10-26T22:46:22.195Z,17.91
2022-10-26T22:49:00.759Z,19.08
2022-10-26T22:51:31.157Z,18.77
2022-10-26T22:54:00.274Z,18.00
2022-10-26T22:56:29.345Z,18.20
2022-10-26T22:58:57.422Z,18.61
2022-10-26T23:01:27.570Z,16.79
2022-10-26T23:03:57.651Z,18.51
2022-10-26T23:06:27.057Z,18.94
2022-10-26T23:08:54.091Z,18.55
2022-10-26T23:11:22.793Z,18.28
2022-10-26T23:13:53.777Z,18.19
2022-10-26T23:16:21.282Z,18.13
2022-10-26T23:18:49.060Z,17.65
2022-10-26T23:21:16.972Z,18.80
2022-10-26T23:23:43.894Z,17.25
2022-10-26T23:26:13.962Z,18.43
2022-10-26T23:28:42.795Z,18.26
2022-10-26T23:31:16.145Z,18.72
2022-10-26T23:33:43.328Z,19.48
2022-10-26T23:36:10.228Z,19.15
2022-10-26T23:38:37.167Z,17.63
2022-10-26T23:41:04.323Z,18.73
2022-10-26T23:43:31.477Z,18.06
2022-10-26T23:45:58.380Z,16.99
2022-10-26T23:48:25.098Z,16.51
2022-10-26T23:50:52.158Z,18.13
2022-10-26T23:53:22.551Z,17.39
2022-10-26T23:55:49.818Z,17.38
2022-10-26T23:58:17.762Z,17.76
